Time;durP1;ratioP1;P1;durP2;ratioP2;P2;SDS_P1;SDS_P2;PMS_P1;PMS_P2;Temp;Humidity;BMP_temperature;BMP_pressure;BME280_temperature;BME280_humidity;BME280_pressure;Samples;Min_cycle;Max_cycle;Signal;HPM_P1;HPM_P2
2022/05/05 00:00:29;;;;;;;5.63;2.20;;;21.10;74.20;;;;;;5066062;28;20170;-86
2022/05/05 00:03:01;;;;;;;4.47;1.93;;;21.20;73.90;;;;;;5095685;28;20201;-83
2022/05/05 00:05:28;;;;;;;4.53;2.17;;;21.30;74.00;;;;;;5071729;28;20222;-78
2022/05/05 00:07:56;;;;;;;5.27;2.10;;;21.30;72.80;;;;;;5067084;28;20516;-86
2022/05/05 00:15:54;;;;;;;3.23;1.87;;;21.60;71.50;;;;;;5071542;28;20194;-84
2022/05/05 00:18:22;;;;;;;5.53;1.83;;;21.30;69.90;;;;;;5069175;28;20194;-85
2022/05/05 00:20:49;;;;;;;6.07;2.50;;;21.30;70.70;;;;;;5051916;28;20233;-86
2022/05/05 00:23:17;;;;;;;5.03;2.77;;;21.40;71.40;;;;;;5059086;28;20259;-85
2022/05/05 00:25:44;;;;;;;5.47;2.60;;;21.50;71.40;;;;;;5067158;28;20214;-83
2022/05/05 00:28:11;;;;;;;7.53;2.77;;;21.50;70.30;;;;;;5060251;28;20180;-86
2022/05/05 00:30:39;;;;;;;8.17;2.43;;;21.60;69.60;;;;;;5053178;28;20172;-88
2022/05/05 00:33:06;;;;;;;6.00;2.47;;;21.50;69.20;;;;;;5053626;28;20188;-78
2022/05/05 00:35:33;;;;;;;8.33;2.80;;;21.30;70.70;;;;;;5079034;28;20203;-86
2022/05/05 00:38:01;;;;;;;3.50;2.07;;;21.30;70.90;;;;;;5071711;28;20231;-88
2022/05/05 00:40:28;;;;;;;6.37;2.47;;;21.30;69.70;;;;;;5072931;28;20175;-88
2022/05/05 00:42:57;;;;;;;2.97;1.90;;;21.40;69.00;;;;;;5072592;28;20254;-85
2022/05/05 00:45:24;;;;;;;3.67;1.93;;;21.50;67.80;;;;;;5088425;28;20206;-89
2022/05/05 00:47:51;;;;;;;4.10;1.40;;;21.50;66.80;;;;;;5086304;28;20267;-84
2022/05/05 00:50:23;;;;;;;5.90;1.73;;;21.70;65.20;;;;;;5052334;28;20176;-87
2022/05/05 00:52:50;;;;;;;28.93;3.10;;;21.80;65.80;;;;;;5071344;28;20645;-81
2022/05/05 00:55:18;;;;;;;3.93;1.87;;;21.90;65.90;;;;;;5071584;28;20183;-86
2022/05/05 00:57:45;;;;;;;58.43;9.33;;;21.80;64.60;;;;;;5072673;28;20172;-79
2022/05/05 01:00:13;;;;;;;29.87;5.90;;;21.80;63.90;;;;;;5072866;28;20183;-81
2022/05/05 01:02:41;;;;;;;5.27;1.50;;;21.80;63.20;;;;;;5072013;28;20640;-85
2022/05/05 01:05:09;;;;;;;3.07;1.40;;;21.80;61.70;;;;;;5071907;28;20183;-81
2022/05/05 01:07:37;;;;;;;2.70;1.00;;;21.70;62.90;;;;;;5068264;28;20186;-86
2022/05/05 01:10:05;;;;;;;1.27;1.03;;;21.60;60.80;;;;;;5066789;28;20182;-79
2022/05/05 01:12:33;;;;;;;1.60;1.00;;;21.40;61.00;;;;;;5063981;28;20183;-82
2022/05/05 01:15:01;;;;;;;4.37;1.50;;;21.40;61.00;;;;;;5071041;28;20179;-84
2022/05/05 01:17:28;;;;;;;2.07;1.10;;;21.40;61.50;;;;;;5070618;28;20187;-82
2022/05/05 01:19:56;;;;;;;13.50;2.10;;;21.40;61.50;;;;;;5070357;28;20183;-78
2022/05/05 01:22:26;;;;;;;7.67;1.97;;;21.50;61.70;;;;;;5070892;28;20263;-81
2022/05/05 01:30:24;;;;;;;3.50;1.30;;;21.40;62.60;;;;;;5071438;28;20228;-87
2022/05/05 01:32:51;;;;;;;1.97;1.10;;;21.40;63.20;;;;;;5075059;28;20183;-88
2022/05/05 01:35:19;;;;;;;4.30;1.33;;;21.50;63.90;;;;;;5071628;28;20179;-90
2022/05/05 01:37:47;;;;;;;2.93;1.20;;;21.70;63.50;;;;;;5074926;28;20186;-83
2022/05/05 01:40:15;;;;;;;2.20;1.20;;;21.80;63.30;;;;;;5074705;28;20244;-83
2022/05/05 01:42:43;;;;;;;3.27;1.30;;;21.90;62.90;;;;;;5077395;28;20223;-84
2022/05/05 01:45:11;;;;;;;3.57;1.30;;;22.10;63.10;;;;;;5073438;28;20264;-86
2022/05/05 01:47:38;;;;;;;1.53;1.00;;;22.00;62.70;;;;;;5072546;28;20266;-82
2022/05/05 01:50:06;;;;;;;5.70;1.17;;;22.00;63.20;;;;;;5072766;28;20209;-81
2022/05/05 01:52:33;;;;;;;6.93;1.20;;;22.10;62.10;;;;;;5072273;28;20191;-77
2022/05/05 01:55:01;;;;;;;1.20;1.10;;;22.50;61.50;;;;;;5074561;28;20249;-78
2022/05/05 01:57:28;;;;;;;2.67;1.30;;;23.20;59.60;;;;;;5072303;28;20179;-83
2022/05/05 01:59:56;;;;;;;1.37;1.17;;;23.40;58.90;;;;;;5070901;28;20595;-84
2022/05/05 02:02:23;;;;;;;4.33;1.10;;;23.50;58.30;;;;;;5072206;28;20721;-84
2022/05/05 02:04:50;;;;;;;2.07;1.10;;;23.30;58.60;;;;;;5073052;28;20171;-81
2022/05/05 02:07:18;;;;;;;1.90;0.90;;;23.10;58.30;;;;;;5074502;28;20294;-91
2022/05/05 02:09:45;;;;;;;2.03;1.27;;;23.00;59.80;;;;;;5069617;28;20205;-87
2022/05/05 02:12:12;;;;;;;1.70;1.20;;;22.80;60.00;;;;;;5075997;28;20270;-88
2022/05/05 02:14:40;;;;;;;1.83;1.10;;;22.90;59.10;;;;;;5077776;28;20237;-87
2022/05/05 02:17:07;;;;;;;2.30;1.00;;;23.20;56.10;;;;;;5077782;28;20549;-84
2022/05/05 02:19:34;;;;;;;2.30;1.30;;;23.80;55.00;;;;;;5067861;28;20233;-85
2022/05/05 02:22:02;;;;;;;1.87;0.87;;;23.90;54.50;;;;;;5062063;28;20175;-81
2022/05/05 02:24:29;;;;;;;2.10;1.10;;;23.90;54.80;;;;;;5073919;28;20166;-83
2022/05/05 02:26:57;;;;;;;1.73;1.07;;;24.60;54.00;;;;;;5067721;28;20812;-82
2022/05/05 02:29:24;;;;;;;1.43;1.00;;;24.30;53.10;;;;;;5074559;28;20230;-89
2022/05/05 02:31:51;;;;;;;1.30;0.90;;;23.70;53.60;;;;;;5071669;28;20180;-91
2022/05/05 02:34:19;;;;;;;2.93;0.97;;;23.60;55.00;;;;;;5069743;28;20167;-90
2022/05/05 02:39:31;;;;;;;1.83;0.87;;;24.60;51.10;;;;;;5072284;28;20191;-84
2022/05/05 02:41:59;;;;;;;2.83;1.10;;;25.10;48.90;;;;;;5065272;28;20204;-82
2022/05/05 02:44:26;;;;;;;2.03;1.23;;;25.40;48.20;;;;;;5063818;28;20210;-78
2022/05/05 02:46:53;;;;;;;3.70;0.97;;;25.50;47.40;;;;;;5069496;28;20204;-83
2022/05/05 02:49:21;;;;;;;3.67;1.17;;;25.30;47.60;;;;;;5072646;28;20172;-83
2022/05/05 02:51:48;;;;;;;4.20;1.10;;;25.10;48.40;;;;;;5060501;28;20220;-84
2022/05/05 02:57:01;;;;;;;2.17;0.90;;;24.20;48.20;;;;;;5064683;28;20222;-87
2022/05/05 02:59:28;;;;;;;1.00;0.67;;;24.00;48.70;;;;;;5075313;28;20183;-86
2022/05/05 03:01:56;;;;;;;3.77;1.00;;;23.90;47.90;;;;;;5074234;28;20560;-85
2022/05/05 03:04:23;;;;;;;1.83;1.17;;;23.80;47.50;;;;;;5074986;28;20179;-87
2022/05/05 03:06:50;;;;;;;1.93;1.10;;;24.00;47.90;;;;;;5074524;28;20202;-80
2022/05/05 03:09:19;;;;;;;1.40;1.00;;;24.20;49.00;;;;;;5074887;28;20254;-81
2022/05/05 03:11:46;;;;;;;1.90;1.00;;;24.00;49.30;;;;;;5068200;28;20225;-84
2022/05/05 03:14:14;;;;;;;3.83;1.07;;;23.90;48.40;;;;;;5067958;28;20179;-80
2022/05/05 03:16:41;;;;;;;3.43;1.20;;;23.70;49.40;;;;;;5068865;28;20550;-80
2022/05/05 03:19:09;;;;;;;1.53;0.90;;;23.40;48.90;;;;;;5065410;28;20179;-85
2022/05/05 03:21:37;;;;;;;2.07;0.80;;;23.30;49.80;;;;;;5059694;28;20278;-88
2022/05/05 03:24:08;;;;;;;3.93;1.30;;;23.30;50.90;;;;;;5067553;28;20186;-91
2022/05/05 03:26:38;;;;;;;2.13;1.10;;;23.30;51.10;;;;;;5072693;28;20199;-90
2022/05/05 03:29:06;;;;;;;1.80;1.00;;;23.80;50.50;;;;;;5073628;28;20164;-86
2022/05/05 03:31:33;;;;;;;3.87;1.13;;;23.70;49.10;;;;;;5069325;28;20578;-88
2022/05/05 03:34:01;;;;;;;2.90;0.90;;;23.80;49.90;;;;;;5053190;28;20172;-82
2022/05/05 03:36:28;;;;;;;1.80;1.23;;;24.30;50.10;;;;;;5053330;28;20648;-84
2022/05/05 03:38:55;;;;;;;2.17;1.10;;;24.10;51.40;;;;;;5067152;28;20182;-86
2022/05/05 03:41:23;;;;;;;1.43;1.00;;;23.70;51.20;;;;;;5070985;28;20209;-82
2022/05/05 03:43:52;;;;;;;4.57;1.10;;;23.60;53.10;;;;;;5070906;28;20227;-77
2022/05/05 03:46:19;;;;;;;3.33;1.10;;;23.50;53.80;;;;;;5074949;28;20692;-82
2022/05/05 03:48:47;;;;;;;3.20;1.00;;;23.80;52.70;;;;;;5053993;28;20180;-86
2022/05/05 03:51:14;;;;;;;1.47;0.97;;;24.30;51.90;;;;;;5056297;28;20195;-82
2022/05/05 03:53:42;;;;;;;3.70;1.33;;;25.40;50.20;;;;;;5072971;28;20629;-81
2022/05/05 03:56:09;;;;;;;7.30;0.80;;;26.00;47.50;;;;;;5072786;28;20174;-81
2022/05/05 03:58:37;;;;;;;2.73;1.47;;;26.20;47.00;;;;;;5072715;28;20185;-84
2022/05/05 04:01:04;;;;;;;5.83;0.97;;;26.00;47.30;;;;;;5073623;28;20255;-83
2022/05/05 04:03:32;;;;;;;2.97;1.10;;;25.40;48.70;;;;;;5072827;28;20177;-83
2022/05/05 04:06:05;;;;;;;3.80;1.17;;;25.10;49.90;;;;;;5072701;28;20203;-84
2022/05/05 04:08:34;;;;;;;1.60;1.20;;;24.70;50.70;;;;;;5072892;28;20170;-80
2022/05/05 04:11:02;;;;;;;3.23;1.20;;;24.90;50.10;;;;;;5072698;28;20539;-80
2022/05/05 04:13:29;;;;;;;2.50;1.20;;;25.10;49.70;;;;;;5072748;28;20163;-83
2022/05/05 04:15:58;;;;;;;3.40;1.70;;;25.00;49.80;;;;;;5072724;28;20176;-84
2022/05/05 04:18:25;;;;;;;3.90;2.17;;;25.40;48.50;;;;;;5072484;28;20163;-84
2022/05/05 04:20:53;;;;;;;4.40;1.90;;;25.30;48.20;;;;;;5072641;28;20639;-80
2022/05/05 04:23:20;;;;;;;5.30;2.07;;;25.70;47.60;;;;;;5072744;28;20179;-81
2022/05/05 04:25:48;;;;;;;4.63;2.07;;;26.20;46.30;;;;;;5071092;28;20206;-81
2022/05/05 04:28:19;;;;;;;2.90;1.70;;;26.50;45.90;;;;;;5072716;28;20171;-80
2022/05/05 04:30:46;;;;;;;6.50;1.50;;;26.40;45.10;;;;;;5072713;28;20176;-79
2022/05/05 04:33:14;;;;;;;2.07;1.40;;;26.00;46.50;;;;;;5072229;28;20172;-79
2022/05/05 04:35:45;;;;;;;3.20;1.53;;;26.90;45.10;;;;;;5072603;28;20529;-77
2022/05/05 04:38:13;;;;;;;4.00;1.70;;;25.90;46.90;;;;;;5072680;28;20174;-78
2022/05/05 04:40:40;;;;;;;2.70;1.40;;;25.50;48.20;;;;;;5072449;28;20168;-79
2022/05/05 04:43:08;;;;;;;3.83;1.30;;;24.90;49.90;;;;;;5072460;28;20223;-78
2022/05/05 04:45:35;;;;;;;2.83;1.23;;;24.30;53.00;;;;;;5072336;28;20241;-82
2022/05/05 04:48:03;;;;;;;2.67;1.23;;;23.70;55.50;;;;;;5066984;28;20220;-80
2022/05/05 04:50:31;;;;;;;3.73;1.20;;;23.70;56.30;;;;;;5052241;28;20279;-78
2022/05/05 04:52:59;;;;;;;6.67;1.40;;;23.60;56.90;;;;;;5067657;28;20266;-81
2022/05/05 04:55:26;;;;;;;5.27;2.03;;;23.40;56.90;;;;;;5068883;28;20195;-80
2022/05/05 04:57:53;;;;;;;5.03;1.47;;;23.10;57.80;;;;;;5066144;28;20645;-79
2022/05/05 05:00:22;;;;;;;4.60;1.13;;;23.10;58.70;;;;;;5069619;28;20179;-80
2022/05/05 05:02:50;;;;;;;5.03;1.47;;;22.90;59.90;;;;;;5071073;28;20163;-81
2022/05/05 05:05:18;;;;;;;4.70;1.30;;;22.90;60.20;;;;;;5065403;28;20194;-78
2022/05/05 05:07:45;;;;;;;10.90;1.27;;;22.90;60.60;;;;;;5071811;28;20695;-81
2022/05/05 05:10:12;;;;;;;8.00;1.57;;;23.20;60.50;;;;;;5070263;28;20207;-79
2022/05/05 05:12:40;;;;;;;3.77;1.10;;;23.30;59.40;;;;;;5068647;28;20321;-79
2022/05/05 05:15:08;;;;;;;3.90;1.73;;;23.00;60.00;;;;;;5073855;28;20199;-76
2022/05/05 05:17:35;;;;;;;5.53;1.43;;;23.30;59.90;;;;;;5064188;28;20183;-81
2022/05/05 05:20:04;;;;;;;5.00;1.30;;;23.90;58.70;;;;;;5055311;28;20339;-78
2022/05/05 05:22:31;;;;;;;3.67;1.43;;;23.80;59.40;;;;;;5065995;28;20631;-78
2022/05/05 05:24:59;;;;;;;7.57;1.70;;;23.70;59.80;;;;;;5075081;28;20190;-81
2022/05/05 05:27:27;;;;;;;9.17;1.50;;;23.50;59.90;;;;;;5073194;28;20302;-82
2022/05/05 05:29:54;;;;;;;4.83;1.80;;;24.60;56.30;;;;;;5075735;28;20266;-79
2022/05/05 05:32:21;;;;;;;3.53;1.50;;;24.90;55.80;;;;;;5058985;28;20180;-82
2022/05/05 05:34:49;;;;;;;4.20;1.53;;;25.30;54.40;;;;;;5064333;28;20703;-80
2022/05/05 05:37:16;;;;;;;5.33;1.60;;;26.00;53.20;;;;;;5072191;28;20678;-82
2022/05/05 05:39:43;;;;;;;5.93;1.47;;;26.50;50.90;;;;;;5069784;28;20215;-79
2022/05/05 05:42:11;;;;;;;2.07;1.10;;;25.80;52.60;;;;;;5065031;28;20215;-79
2022/05/05 05:44:38;;;;;;;5.00;1.50;;;25.60;51.80;;;;;;5070364;28;20631;-81
2022/05/05 05:47:07;;;;;;;7.17;1.63;;;25.60;52.50;;;;;;5065423;28;20211;-79
2022/05/05 05:49:35;;;;;;;5.97;1.23;;;25.50;52.80;;;;;;5067481;28;20290;-84
2022/05/05 05:52:02;;;;;;;3.90;1.50;;;25.80;51.70;;;;;;5070263;28;20552;-78
2022/05/05 05:54:29;;;;;;;3.27;1.30;;;25.90;51.60;;;;;;5070608;28;20222;-82
2022/05/05 05:56:57;;;;;;;7.27;1.50;;;26.20;51.20;;;;;;5071414;28;20183;-79
2022/05/05 05:59:24;;;;;;;3.57;1.50;;;26.00;51.40;;;;;;5072978;28;20179;-78
2022/05/05 06:04:36;;;;;;;5.77;3.17;;;26.10;51.20;;;;;;5073260;28;20198;-78
2022/05/05 06:07:04;;;;;;;11.70;5.77;;;25.10;53.60;;;;;;5074877;28;20215;-79
2022/05/05 06:09:31;;;;;;;6.10;2.07;;;24.40;55.20;;;;;;5068019;28;20183;-80
2022/05/05 06:12:00;;;;;;;6.73;1.43;;;23.70;57.70;;;;;;5069545;28;20187;-80
2022/05/05 06:14:27;;;;;;;8.00;1.70;;;23.40;58.30;;;;;;5069262;28;20175;-81
2022/05/05 06:16:54;;;;;;;5.80;1.60;;;23.20;59.50;;;;;;5073092;28;20250;-77
2022/05/05 06:19:22;;;;;;;7.43;1.53;;;23.00;60.20;;;;;;5072211;28;20322;-79
2022/05/05 06:21:50;;;;;;;6.77;1.50;;;23.00;60.70;;;;;;5074525;28;20670;-79
2022/05/05 06:24:17;;;;;;;4.03;1.40;;;22.80;61.40;;;;;;5077512;28;20183;-80
2022/05/05 06:26:44;;;;;;;5.17;1.80;;;22.40;61.70;;;;;;5076646;28;20265;-80
2022/05/05 06:29:12;;;;;;;7.20;1.47;;;22.30;62.40;;;;;;5079286;28;20274;-78
2022/05/05 06:31:39;;;;;;;4.17;1.83;;;22.20;62.80;;;;;;5080716;28;20657;-75
2022/05/05 06:34:06;;;;;;;7.70;1.63;;;22.00;63.90;;;;;;5084256;28;20191;-75
2022/05/05 06:36:34;;;;;;;10.97;1.93;;;21.70;64.50;;;;;;5086424;28;20602;-76
2022/05/05 06:39:01;;;;;;;3.93;1.80;;;21.60;65.30;;;;;;5088033;28;20180;-74
2022/05/05 06:41:28;;;;;;;7.53;1.70;;;21.50;65.80;;;;;;5070571;28;20183;-76
2022/05/05 06:43:56;;;;;;;3.87;1.70;;;21.50;65.60;;;;;;5071463;28;20254;-79
2022/05/05 06:46:23;;;;;;;7.73;1.90;;;21.30;67.10;;;;;;5072766;28;20207;-78
2022/05/05 06:48:51;;;;;;;6.33;1.80;;;21.30;66.80;;;;;;5065616;28;20266;-78
2022/05/05 06:51:18;;;;;;;5.63;1.70;;;21.10;67.30;;;;;;5071265;28;20183;-79
2022/05/05 06:53:46;;;;;;;10.53;2.20;;;21.00;67.90;;;;;;5073194;28;20184;-78
2022/05/05 06:56:13;;;;;;;5.80;1.70;;;20.90;68.10;;;;;;5069793;28;20175;-78
2022/05/05 06:58:40;;;;;;;4.63;1.57;;;20.90;68.40;;;;;;5065877;28;20185;-77
2022/05/05 07:05:23;;;;;;;6.50;2.07;;;20.80;68.60;;;;;;5067497;28;20237;-78
2022/05/05 07:06:40;;;;;;;5.30;1.70;;;20.70;69.20;;;;;;5083355;28;20256;-78
2022/05/05 07:11:54;;;;;;;8.40;1.90;;;20.40;69.80;;;;;;5069506;28;20194;-77
2022/05/05 07:14:21;;;;;;;6.90;1.80;;;20.30;70.10;;;;;;5088478;28;20219;-77
2022/05/05 07:16:49;;;;;;;8.20;1.70;;;20.20;70.70;;;;;;5093578;28;20324;-78
2022/05/05 07:19:17;;;;;;;5.93;2.20;;;20.20;71.10;;;;;;5086252;28;20210;-77
2022/05/05 07:21:44;;;;;;;8.40;2.10;;;20.10;71.20;;;;;;5080543;28;20175;-78
2022/05/05 07:24:11;;;;;;;5.77;1.93;;;20.00;71.10;;;;;;5072198;28;20172;-78
2022/05/05 07:26:38;;;;;;;8.73;1.73;;;19.90;71.40;;;;;;5080039;28;20672;-77
2022/05/05 07:29:06;;;;;;;5.10;1.83;;;19.80;71.50;;;;;;5060153;28;20175;-78
2022/05/05 07:31:33;;;;;;;9.30;2.43;;;19.80;71.70;;;;;;5071839;28;20190;-78
2022/05/05 07:34:00;;;;;;;5.23;2.13;;;19.70;72.30;;;;;;5071109;28;20175;-77
2022/05/05 07:36:28;;;;;;;6.53;1.70;;;19.70;72.60;;;;;;5072880;28;20205;-77
2022/05/05 07:38:55;;;;;;;6.17;1.90;;;19.60;72.50;;;;;;5072379;28;20179;-79
2022/05/05 07:41:23;;;;;;;3.33;1.60;;;19.50;73.00;;;;;;5072238;28;20175;-78
2022/05/05 07:43:53;;;;;;;12.67;2.20;;;19.50;73.50;;;;;;5072367;28;20310;-78
2022/05/05 07:46:21;;;;;;;8.07;2.47;;;19.40;73.70;;;;;;5067072;28;20689;-78
2022/05/05 07:48:49;;;;;;;5.27;2.70;;;19.30;73.80;;;;;;5074438;28;20174;-78
2022/05/05 07:51:16;;;;;;;7.07;2.83;;;19.30;74.00;;;;;;5088781;28;20660;-77
2022/05/05 07:54:34;;;;;;;5.00;2.23;;;19.30;74.10;;;;;;5069529;28;20269;-77
2022/05/05 07:56:31;;;;;;;8.03;2.30;;;19.20;74.20;;;;;;5086714;28;20190;-77
2022/05/05 07:58:58;;;;;;;6.77;2.90;;;19.20;74.40;;;;;;5081959;28;20228;-77
2022/05/05 08:01:26;;;;;;;7.83;3.00;;;19.20;74.60;;;;;;5072181;28;20200;-77
2022/05/05 08:03:53;;;;;;;7.20;3.00;;;19.10;74.80;;;;;;5075400;28;20262;-77
2022/05/05 08:06:21;;;;;;;8.83;3.10;;;19.10;74.90;;;;;;5071098;28;20265;-76
2022/05/05 08:08:48;;;;;;;11.20;2.60;;;19.00;74.90;;;;;;5072084;28;20195;-76
2022/05/05 08:11:16;;;;;;;7.17;2.60;;;19.00;75.00;;;;;;5065917;28;20277;-76
2022/05/05 08:13:43;;;;;;;8.60;2.57;;;19.00;75.10;;;;;;5061152;28;20175;-76
2022/05/05 08:16:11;;;;;;;10.83;8.43;;;18.90;75.20;;;;;;5070125;28;20661;-76
2022/05/05 08:18:39;;;;;;;11.33;6.03;;;18.90;75.50;;;;;;5071612;28;20184;-77
2022/05/05 08:21:10;;;;;;;8.60;3.73;;;18.90;75.60;;;;;;5072823;28;20200;-76
2022/05/05 08:23:38;;;;;;;12.37;3.80;;;18.80;75.70;;;;;;5053474;28;20223;-77
2022/05/05 08:28:51;;;;;;;9.90;4.47;;;18.80;76.00;;;;;;5052602;28;20174;-78
2022/05/05 08:31:19;;;;;;;11.27;3.93;;;18.80;76.10;;;;;;5050941;28;20642;-77
2022/05/05 08:33:47;;;;;;;7.73;3.63;;;18.70;76.20;;;;;;5071748;28;20225;-77
2022/05/05 08:36:15;;;;;;;10.03;3.80;;;18.70;76.50;;;;;;5072002;28;20240;-77
2022/05/05 08:38:44;;;;;;;9.80;3.27;;;18.70;76.60;;;;;;5070978;28;20183;-77
2022/05/05 08:41:12;;;;;;;11.00;3.90;;;18.70;76.70;;;;;;5072722;28;20575;-77
2022/05/05 08:43:41;;;;;;;8.27;3.87;;;18.70;76.80;;;;;;5069712;28;20246;-77
2022/05/05 08:46:13;;;;;;;8.90;3.90;;;18.60;77.10;;;;;;5096505;28;20202;-76
2022/05/05 08:48:44;;;;;;;8.07;3.57;;;18.60;77.60;;;;;;5081071;28;20521;-77
2022/05/05 08:51:18;;;;;;;9.87;3.93;;;18.50;77.80;;;;;;5075516;28;20263;-78
2022/05/05 08:53:53;;;;;;;9.33;3.60;;;18.50;78.20;;;;;;5067044;28;20232;-77
2022/05/05 08:56:20;;;;;;;7.50;3.77;;;18.40;78.40;;;;;;5073291;28;20224;-78
2022/05/05 08:58:47;;;;;;;8.00;3.70;;;18.30;78.60;;;;;;5067096;28;20179;-78
2022/05/05 09:01:15;;;;;;;8.60;3.80;;;18.30;78.80;;;;;;5068463;28;20610;-79
2022/05/05 09:03:43;;;;;;;10.00;4.40;;;18.30;78.90;;;;;;5072986;28;20180;-77
2022/05/05 09:06:11;;;;;;;9.03;4.27;;;18.30;79.10;;;;;;5069097;28;20282;-78
2022/05/05 09:08:39;;;;;;;12.30;4.43;;;18.30;79.10;;;;;;5072367;28;20190;-78
2022/05/05 09:11:07;;;;;;;12.47;4.73;;;18.30;79.40;;;;;;5056809;28;21116;-77
2022/05/05 09:13:37;;;;;;;12.80;4.70;;;18.30;79.40;;;;;;5074913;28;20187;-76
2022/05/05 09:16:06;;;;;;;11.53;4.67;;;18.20;79.70;;;;;;5061594;28;20263;-76
2022/05/05 09:18:36;;;;;;;9.93;4.63;;;18.20;79.90;;;;;;5071114;28;20187;-77
2022/05/05 09:21:06;;;;;;;12.03;4.33;;;18.10;79.90;;;;;;5067103;28;20215;-77
2022/05/05 09:26:31;;;;;;;10.57;4.23;;;18.10;80.50;;;;;;5073576;28;20235;-79
2022/05/05 09:28:58;;;;;;;16.20;4.13;;;18.00;80.50;;;;;;5072517;28;20203;-78
2022/05/05 09:31:26;;;;;;;12.87;4.07;;;18.00;80.40;;;;;;5073512;28;20235;-76
2022/05/05 09:33:53;;;;;;;11.43;3.30;;;18.00;80.90;;;;;;5067156;28;20184;-75
2022/05/05 09:36:28;;;;;;;10.63;4.17;;;18.00;81.10;;;;;;5079305;28;20232;-76
2022/05/05 09:39:00;;;;;;;10.93;3.50;;;18.00;81.40;;;;;;5086523;28;20217;-75
2022/05/05 09:41:30;;;;;;;8.07;3.40;;;17.90;81.40;;;;;;5073066;28;20175;-76
2022/05/05 09:44:12;;;;;;;11.27;3.60;;;18.00;81.90;;;;;;5064676;28;20704;-75
2022/05/05 09:46:40;;;;;;;13.57;9.47;;;17.90;81.70;;;;;;5072627;28;20693;-75
2022/05/05 09:49:13;;;;;;;14.60;8.07;;;17.90;81.60;;;;;;5085461;28;20174;-76
2022/05/05 09:57:42;;;;;;;15.63;8.10;;;17.80;82.50;;;;;;5059541;28;20193;-75
2022/05/05 10:06:05;;;;;;;13.57;5.97;;;17.80;82.50;;;;;;5067831;28;20240;-76
2022/05/05 10:08:56;;;;;;;17.97;5.40;;;17.80;82.50;;;;;;5062078;28;20603;-75
2022/05/05 10:11:23;;;;;;;15.13;5.13;;;17.80;82.80;;;;;;5078228;28;20175;-75
2022/05/05 10:13:52;;;;;;;9.13;4.70;;;17.80;82.70;;;;;;5074855;28;20205;-75
2022/05/05 10:16:23;;;;;;;14.30;5.57;;;17.70;82.90;;;;;;5074591;28;20164;-76
2022/05/05 10:18:51;;;;;;;22.47;6.17;;;17.70;83.10;;;;;;5075158;28;20643;-76
2022/05/05 10:21:21;;;;;;;11.10;5.47;;;17.70;83.20;;;;;;5073858;28;20178;-76
2022/05/05 10:24:00;;;;;;;12.77;5.03;;;17.70;83.30;;;;;;5074513;28;20182;-76
2022/05/05 10:26:28;;;;;;;12.80;5.67;;;17.60;83.50;;;;;;5075014;28;20202;-76
2022/05/05 10:28:55;;;;;;;13.37;6.67;;;17.60;83.80;;;;;;5071643;28;20197;-77
2022/05/05 10:31:31;;;;;;;12.33;5.77;;;17.60;84.00;;;;;;5091971;28;20186;-78
2022/05/05 10:34:04;;;;;;;12.63;5.10;;;17.50;83.90;;;;;;5073066;28;20186;-78
2022/05/05 10:36:31;;;;;;;12.73;5.10;;;17.60;83.90;;;;;;5073135;28;20191;-78
2022/05/05 10:38:59;;;;;;;13.40;5.87;;;17.70;83.90;;;;;;5084066;28;20296;-77
2022/05/05 10:41:39;;;;;;;15.10;5.20;;;17.70;83.90;;;;;;5086051;28;20668;-77
2022/05/05 10:44:19;;;;;;;11.70;4.80;;;17.70;83.70;;;;;;5074325;28;20195;-79
2022/05/05 10:47:05;;;;;;;14.53;5.30;;;17.80;83.30;;;;;;5076221;28;20228;-77
2022/05/05 10:49:33;;;;;;;17.17;5.67;;;17.80;82.90;;;;;;5077767;28;20208;-79
2022/05/05 10:52:12;;;;;;;14.80;4.50;;;17.90;82.50;;;;;;5087734;28;20550;-77
2022/05/05 10:54:42;;;;;;;11.40;4.40;;;17.80;82.10;;;;;;5073262;28;20255;-76
2022/05/05 10:57:28;;;;;;;13.97;5.27;;;17.90;82.20;;;;;;5071217;28;20187;-77
2022/05/05 11:00:10;;;;;;;10.10;4.57;;;17.80;81.90;;;;;;5077135;28;20171;-77
2022/05/05 11:02:57;;;;;;;8.83;4.43;;;17.80;81.90;;;;;;5069927;28;20179;-76
2022/05/05 11:05:28;;;;;;;13.27;4.67;;;17.80;82.10;;;;;;5076220;28;20178;-77
2022/05/05 11:08:08;;;;;;;14.33;5.17;;;17.70;82.60;;;;;;5076771;28;20281;-76
2022/05/05 11:11:40;;;;;;;11.53;3.93;;;17.60;82.70;;;;;;5054580;28;20187;-76
2022/05/05 11:13:54;;;;;;;9.47;4.33;;;17.50;82.80;;;;;;5054143;28;20201;-77
2022/05/05 11:22:24;;;;;;;13.97;4.27;;;17.30;83.40;;;;;;5065343;28;20241;-76
2022/05/05 11:24:54;;;;;;;11.20;4.30;;;17.30;83.60;;;;;;5057243;28;20189;-76
2022/05/05 11:27:23;;;;;;;9.30;4.37;;;17.20;83.70;;;;;;5072275;28;20735;-76
2022/05/05 11:29:59;;;;;;;10.60;4.13;;;17.20;83.90;;;;;;5061338;28;20195;-76
2022/05/05 11:32:35;;;;;;;10.60;4.63;;;17.10;84.00;;;;;;5073284;28;20640;-75
2022/05/05 11:35:04;;;;;;;11.37;4.13;;;17.10;84.10;;;;;;5073335;28;20577;-75
2022/05/05 11:37:32;;;;;;;12.20;4.17;;;17.00;84.30;;;;;;5073584;28;20199;-75
2022/05/05 11:40:02;;;;;;;11.87;4.50;;;16.90;84.50;;;;;;5053153;28;20180;-75
2022/05/05 11:42:29;;;;;;;12.13;4.40;;;17.00;84.90;;;;;;5060280;28;20210;-76
2022/05/05 11:44:56;;;;;;;11.37;3.87;;;17.00;84.80;;;;;;5073271;28;21872;-75
2022/05/05 11:47:24;;;;;;;14.63;4.47;;;17.00;85.20;;;;;;5067554;28;20239;-75
2022/05/05 11:49:52;;;;;;;9.20;3.57;;;17.00;85.30;;;;;;5052879;28;20221;-76
2022/05/05 11:52:25;;;;;;;17.00;4.43;;;16.90;85.10;;;;;;5069524;28;20571;-75
2022/05/05 11:54:57;;;;;;;10.63;4.40;;;16.90;85.20;;;;;;5073464;28;20633;-76
2022/05/05 11:57:40;;;;;;;12.23;4.80;;;16.80;85.40;;;;;;5073150;28;20669;-77
2022/05/05 12:02:57;;;;;;;12.80;4.63;;;16.70;85.80;;;;;;5077555;28;20187;-76
2022/05/05 12:05:25;;;;;;;13.17;4.07;;;16.80;86.00;;;;;;5087001;28;20182;-76
2022/05/05 12:07:54;;;;;;;11.87;3.93;;;16.70;85.90;;;;;;5087805;28;20588;-75
2022/05/05 12:10:24;;;;;;;8.23;4.17;;;16.70;86.10;;;;;;5077725;28;20183;-78
2022/05/05 12:12:52;;;;;;;11.23;4.13;;;16.70;86.40;;;;;;5069558;28;20324;-76
2022/05/05 12:15:21;;;;;;;13.97;4.27;;;16.70;86.10;;;;;;5076388;28;20287;-76
2022/05/05 12:17:52;;;;;;;10.40;4.37;;;16.60;86.60;;;;;;5087065;28;20533;-76
2022/05/05 12:20:21;;;;;;;11.60;3.73;;;16.60;86.60;;;;;;5084194;28;20191;-77
2022/05/05 12:23:04;;;;;;;8.17;3.63;;;16.60;86.80;;;;;;5069703;28;20193;-76
2022/05/05 12:25:32;;;;;;;8.70;3.70;;;16.60;87.00;;;;;;5058858;28;20233;-76
2022/05/05 12:27:59;;;;;;;14.17;3.87;;;16.60;87.00;;;;;;5071833;28;20198;-76
2022/05/05 12:30:45;;;;;;;10.17;3.70;;;16.60;86.90;;;;;;5070290;28;20213;-77
2022/05/05 12:33:16;;;;;;;8.67;3.30;;;16.70;86.80;;;;;;5068630;28;20213;-76
2022/05/05 12:35:47;;;;;;;9.70;3.70;;;16.60;86.60;;;;;;5090234;28;20191;-76
2022/05/05 12:38:16;;;;;;;6.30;3.00;;;16.60;86.60;;;;;;5093083;28;20184;-77
2022/05/05 12:40:46;;;;;;;11.03;3.47;;;16.60;86.60;;;;;;5073000;28;20288;-79
2022/05/05 12:43:20;;;;;;;12.30;3.90;;;16.60;86.70;;;;;;5078133;28;20237;-78
2022/05/05 12:45:49;;;;;;;11.90;3.63;;;16.70;86.70;;;;;;5075730;28;20310;-78
2022/05/05 12:48:19;;;;;;;10.50;3.60;;;16.60;86.60;;;;;;5072355;28;20683;-77
2022/05/05 12:50:53;;;;;;;11.20;4.00;;;16.70;86.50;;;;;;5062645;28;20201;-77
2022/05/05 13:01:52;;;;;;;5.03;2.80;;;16.80;84.20;;;;;;5069062;28;20196;-78
2022/05/05 13:04:20;;;;;;;2.83;2.23;;;16.90;83.60;;;;;;5070761;28;20525;-77
2022/05/05 13:06:50;;;;;;;5.33;2.10;;;16.90;82.60;;;;;;5071417;28;20629;-78
2022/05/05 13:09:18;;;;;;;4.47;1.80;;;16.80;81.70;;;;;;5070932;28;20174;-79
2022/05/05 13:11:51;;;;;;;5.13;1.80;;;16.80;79.20;;;;;;5071969;28;20182;-76
2022/05/05 13:14:20;;;;;;;5.00;1.70;;;16.70;79.00;;;;;;5070898;28;20248;-78
2022/05/05 13:16:48;;;;;;;5.87;2.17;;;16.80;78.20;;;;;;5051928;28;20287;-78
2022/05/05 13:19:16;;;;;;;3.57;1.70;;;16.70;77.50;;;;;;5057471;28;20764;-78
2022/05/05 13:21:44;;;;;;;4.70;2.00;;;16.70;77.30;;;;;;5071999;28;20737;-77
2022/05/05 13:24:12;;;;;;;6.57;2.00;;;16.70;77.60;;;;;;5070132;28;20636;-77
2022/05/05 13:26:41;;;;;;;7.43;2.17;;;16.70;77.80;;;;;;5071333;28;20751;-77
2022/05/05 13:29:09;;;;;;;5.90;1.70;;;16.70;77.10;;;;;;5055708;28;20579;-78
2022/05/05 13:31:37;;;;;;;4.60;1.60;;;16.70;77.00;;;;;;5055609;28;20393;-77
2022/05/05 13:34:05;;;;;;;3.30;1.33;;;16.80;76.80;;;;;;5057259;28;20195;-76
2022/05/05 13:36:32;;;;;;;5.13;1.57;;;16.70;76.50;;;;;;5076233;28;20199;-77
2022/05/05 13:39:00;;;;;;;3.80;1.63;;;16.70;76.50;;;;;;5074793;28;20185;-78
2022/05/05 13:41:28;;;;;;;6.67;1.70;;;16.70;76.00;;;;;;5090266;28;20190;-77
2022/05/05 13:43:55;;;;;;;5.03;1.40;;;16.80;75.40;;;;;;5067533;28;20275;-77
2022/05/05 13:46:22;;;;;;;2.30;1.50;;;16.80;74.60;;;;;;5067198;28;20215;-76
2022/05/05 13:48:50;;;;;;;6.50;1.77;;;16.80;73.90;;;;;;5054119;28;20184;-77
2022/05/05 13:51:18;;;;;;;4.27;1.30;;;16.80;72.20;;;;;;5070283;28;20193;-77